Time;durP1;ratioP1;P1;durP2;ratioP2;P2;SDS_P1;SDS_P2;PMS_P1;PMS_P2;Temp;Humidity;BMP_temperature;BMP_pressure;BME280_temperature;BME280_humidity;BME280_pressure;Samples;Min_cycle;Max_cycle;Signal;HPM_P1;HPM_P2
2023/05/28 00:00:08;;;;;;;;;11.00;7.33;;;;;-147.17;100.00;38287.34;5036068;28;51004;-64
2023/05/28 00:02:34;;;;;;;;;9.33;8.00;;;;;-147.17;100.00;37508.31;5071691;28;51034;-64
2023/05/28 00:05:00;;;;;;;;;10.00;9.33;;;;;-147.17;100.00;37402.34;5070081;27;50898;-63
2023/05/28 00:07:28;;;;;;;;;12.50;11.00;;;;;-147.17;100.00;37102.16;5067304;28;51794;-63
2023/05/28 00:09:53;;;;;;;;;8.00;7.00;;;;;-147.17;100.00;36656.81;5072930;28;51174;-63
2023/05/28 00:12:19;;;;;;;;;9.00;8.67;;;;;-147.17;100.00;35660.41;5070205;28;51263;-63
2023/05/28 00:14:46;;;;;;;;;12.00;11.00;;;;;-147.17;100.00;35381.91;5068544;27;51286;-63
2023/05/28 00:17:12;;;;;;;;;10.67;10.67;;;;;-147.17;100.00;34385.81;5072610;28;51806;-63
2023/05/28 00:19:37;;;;;;;;;10.00;10.00;;;;;-147.17;100.00;33768.28;5061628;28;51047;-63
2023/05/28 00:22:03;;;;;;;;;11.67;11.67;;;;;-147.17;100.00;32892.13;5068110;28;51371;-63
2023/05/28 00:24:28;;;;;;;;;10.00;8.33;;;;;-147.17;100.00;31630.19;5055542;28;51714;-62
2023/05/28 00:26:53;;;;;;;;;12.00;11.33;;;;;-147.17;100.00;30877.91;5062569;28;53313;-64
2023/05/28 00:29:19;;;;;;;;;15.67;13.67;;;;;-147.17;100.00;29869.25;5071670;28;51136;-63
2023/05/28 00:31:44;;;;;;;;;12.00;12.00;;;;;-147.17;100.00;27590.41;5066124;27;51097;-66
2023/05/28 00:34:10;;;;;;;;;11.00;10.67;;;;;-147.17;100.00;27555.19;5061489;27;51354;-63
2023/05/28 00:36:35;;;;;;;;;11.00;10.67;;;;;-147.17;100.00;24174.66;5068063;28;51936;-62
2023/05/28 00:39:04;;;;;;;;;12.33;11.33;;;;;-147.17;100.00;23674.09;5073038;28;51009;-63
2023/05/28 00:41:30;;;;;;;;;11.00;10.00;;;;;-147.17;100.00;22673.13;5070104;28;51072;-64
2023/05/28 00:43:56;;;;;;;;;15.33;13.00;;;;;-147.17;100.00;22172.75;5070911;28;51178;-63
2023/05/28 00:46:23;;;;;;;;;14.33;13.33;;;;;-147.17;100.00;21672.44;5070392;27;53395;-62
2023/05/28 00:48:49;;;;;;;;;15.00;15.00;;;;;-147.17;100.00;20421.94;5069406;28;51215;-62
2023/05/28 00:51:15;;;;;;;;;17.00;15.33;;;;;-147.17;100.00;19171.84;5073530;28;51232;-62
2023/05/28 00:53:41;;;;;;;;;13.33;13.33;;;;;-147.17;100.00;16672.84;5070072;28;51295;-63
2023/05/28 00:56:09;;;;;;;;;14.00;12.67;;;;;-147.17;100.00;13925.81;5059951;28;52605;-62
2023/05/28 00:58:35;;;;;;;;;14.25;13.25;;;;;-147.17;100.00;12677.78;5071959;28;50913;-63
2023/05/28 01:01:00;;;;;;;;;15.00;14.00;;;;;-147.17;100.00;11180.69;5058146;28;51070;-63
2023/05/28 01:03:26;;;;;;;;;18.33;15.67;;;;;-147.17;100.00;10681.81;5070219;27;51100;-63
2023/05/28 01:05:52;;;;;;;;;12.75;12.75;;;;;-147.17;100.00;9933.56;5068050;28;52389;-63
2023/05/28 01:08:18;;;;;;;;;10.67;10.67;;;;;-147.17;100.00;9185.47;5072848;28;51071;-62
2023/05/28 01:10:44;;;;;;;;;14.67;14.67;;;;;-147.17;100.00;8686.84;5065372;28;51346;-65
2023/05/28 01:13:10;;;;;;;;;15.67;13.67;;;;;-147.17;100.00;7939.00;5066764;28;52514;-63
2023/05/28 01:15:37;;;;;;;;;17.50;15.50;;;;;-147.17;100.00;7191.28;5071592;28;51170;-63
2023/05/28 01:18:04;;;;;;;;;16.33;15.00;;;;;-147.17;100.00;6942.09;5054114;28;51170;-63
2023/05/28 01:20:30;;;;;;;;;14.50;14.00;;;;;-147.17;100.00;5447.22;5070982;27;51103;-63
2023/05/28 01:22:59;;;;;;;;;15.50;15.25;;;;;-147.17;100.00;5198.13;5066695;28;51081;-63
2023/05/28 01:25:26;;;;;;;;;14.67;14.00;;;;;-147.17;100.00;5447.22;5064951;28;51906;-62
2023/05/28 01:27:53;;;;;;;;;15.25;13.75;;;;;-147.17;100.00;5198.13;5053800;28;51134;-62
2023/05/28 01:30:19;;;;;;;;;16.25;13.50;;;;;-147.17;100.00;3703.94;5068813;28;51073;-62
2023/05/28 01:32:44;;;;;;;;;16.33;16.00;;;;;-147.17;100.00;2708.13;5056837;28;51135;-64
2023/05/28 01:35:10;;;;;;;;;15.00;14.75;;;;;-147.17;100.00;1961.44;5060425;28;51592;-64
2023/05/28 01:37:48;;;;;;;;;19.33;17.67;;;;;-147.17;100.00;1712.56;5067466;27;51113;-62
2023/05/28 01:40:16;;;;;;;;;26.00;21.00;;;;;-147.17;100.00;1214.91;5062856;28;51192;-64
2023/05/28 01:42:44;;;;;;;;;23.25;20.50;;;;;-147.17;100.00;468.50;5064006;28;52588;-63
2023/05/28 01:45:12;;;;;;;;;21.00;20.00;;;;;-147.17;100.00;-29.03;5047098;28;53251;-63
2023/05/28 01:47:40;;;;;;;;;25.75;23.25;;;;;-147.17;100.00;-277.75;5065350;28;51046;-63
2023/05/28 01:50:05;;;;;;;;;21.75;20.75;;;;;-147.17;100.00;-526.47;5070418;28;51078;-64
2023/05/28 01:52:31;;;;;;;;;21.00;20.25;;;;;-147.17;100.00;-775.19;5051155;28;51243;-64
2023/05/28 01:54:56;;;;;;;;;21.25;18.25;;;;;-147.17;100.00;-1769.84;5068172;27;51591;-63
2023/05/28 01:57:22;;;;;;;;;18.25;17.50;;;;;-147.17;100.00;-2267.06;5066620;28;51717;-63
2023/05/28 01:59:47;;;;;;;;;16.50;16.00;;;;;-147.17;100.00;-3261.34;5071205;28;51127;-63
2023/05/28 02:02:12;;;;;;;;;21.00;18.75;;;;;-147.17;100.00;-3509.84;5071139;28;51041;-63
2023/05/28 02:04:38;;;;;;;;;18.25;17.00;;;;;-147.17;100.00;-3509.84;5070110;28;51245;-63
2023/05/28 02:07:03;;;;;;;;;18.75;17.50;;;;;-147.17;100.00;-4255.34;5074071;28;50926;-64
2023/05/28 02:09:29;;;;;;;;;15.50;15.50;;;;;-147.17;100.00;-4752.25;5068654;28;51017;-63
2023/05/28 02:11:54;;;;;;;;;15.00;14.25;;;;;-147.17;100.00;-4503.81;5067647;27;51108;-62
2023/05/28 02:14:20;;;;;;;;;17.50;16.25;;;;;-147.17;100.00;-5497.50;5069253;28;51720;-63
2023/05/28 02:16:49;;;;;;;;;20.75;16.50;;;;;-147.17;100.00;-5249.09;5061446;28;51076;-63
2023/05/28 02:19:15;;;;;;;;;17.25;15.50;;;;;-147.17;100.00;-5745.88;5071804;28;50929;-63
2023/05/28 02:21:41;;;;;;;;;19.75;16.75;;;;;-147.17;100.00;-5994.25;5047769;28;51273;-63
2023/05/28 02:24:06;;;;;;;;;20.25;16.00;;;;;-147.17;100.00;-5994.25;5063864;28;51095;-63
2023/05/28 02:26:32;;;;;;;;;17.25;17.00;;;;;-147.17;100.00;-6242.59;5061480;28;50895;-62
2023/05/28 02:28:57;;;;;;;;;15.50;14.50;;;;;-147.17;100.00;-5994.25;5071884;27;51230;-63
2023/05/28 02:31:23;;;;;;;;;16.00;15.00;;;;;-147.17;100.00;-6739.25;5070802;28;51128;-63
2023/05/28 02:33:48;;;;;;;;;16.25;15.50;;;;;-147.17;100.00;-7235.84;5068720;28;51711;-63
2023/05/28 02:36:13;;;;;;;;;19.50;18.50;;;;;-147.17;100.00;-7732.34;5063080;28;51040;-63
2023/05/28 02:38:40;;;;;;;;;17.25;15.75;;;;;-147.17;100.00;-8228.81;5060017;28;51235;-64
2023/05/28 02:41:05;;;;;;;;;18.25;16.75;;;;;-147.17;100.00;-8477.03;5041765;28;53198;-64
2023/05/28 02:43:31;;;;;;;;;17.75;16.25;;;;;-147.17;100.00;-8228.81;5068211;27;51550;-64
2023/05/28 02:45:56;;;;;;;;;20.00;18.25;;;;;-147.17;100.00;-8228.81;5068147;28;57786;-64
2023/05/28 02:48:22;;;;;;;;;18.50;17.50;;;;;-147.17;100.00;-8477.03;5072442;28;51049;-64
2023/05/28 02:50:47;;;;;;;;;17.00;16.00;;;;;-147.17;100.00;-8725.22;5070484;28;51340;-63
2023/05/28 02:53:12;;;;;;;;;18.50;17.00;;;;;-147.17;100.00;-9221.53;5072139;28;59474;-63
2023/05/28 02:55:38;;;;;;;;;20.25;18.75;;;;;-147.17;100.00;-9965.91;5070439;27;51113;-64
2023/05/28 02:58:03;;;;;;;;;17.75;17.00;;;;;-147.17;100.00;-9717.81;5067183;28;51001;-63
2023/05/28 03:00:28;;;;;;;;;17.50;15.50;;;;;-147.17;100.00;-9717.81;5071178;28;51070;-63
2023/05/28 03:02:54;;;;;;;;;17.25;17.00;;;;;-147.17;100.00;-10214.00;5051633;28;52965;-64
2023/05/28 03:05:19;;;;;;;;;20.25;18.50;;;;;-147.17;100.00;-10214.00;5069903;28;51001;-63
2023/05/28 03:07:45;;;;;;;;;17.50;17.50;;;;;-147.17;100.00;-10462.09;5070499;28;51025;-64
2023/05/28 03:10:10;;;;;;;;;19.00;18.00;;;;;-147.17;100.00;-10710.16;5064634;27;50970;-63
2023/05/28 03:12:36;;;;;;;;;19.75;18.25;;;;;-147.17;100.00;-10710.16;5063519;28;51940;-64
2023/05/28 03:15:01;;;;;;;;;19.00;18.00;;;;;-147.17;100.00;-10958.19;5067006;28;51243;-64
2023/05/28 03:17:27;;;;;;;;;18.50;17.25;;;;;-147.17;100.00;-10958.19;5069959;27;51776;-62
2023/05/28 03:19:52;;;;;;;;;19.50;17.75;;;;;-147.17;100.00;-11206.22;5057633;28;51291;-62
2023/05/28 03:22:18;;;;;;;;;18.25;17.25;;;;;-147.17;100.00;-11454.25;5069790;28;51238;-63
2023/05/28 03:24:44;;;;;;;;;17.50;17.25;;;;;-147.17;100.00;-11702.25;5070825;28;51040;-63
2023/05/28 03:27:09;;;;;;;;;15.75;14.75;;;;;-147.17;100.00;-11702.25;5031390;28;51102;-63
2023/05/28 03:29:34;;;;;;;;;17.50;16.00;;;;;-147.17;100.00;-11454.25;5065121;28;51397;-62
2023/05/28 03:32:00;;;;;;;;;21.75;18.50;;;;;-147.17;100.00;-11702.25;5068170;28;63462;-63
2023/05/28 03:34:25;;;;;;;;;22.00;20.25;;;;;-147.17;100.00;-11702.25;5064276;27;51311;-63
2023/05/28 03:36:50;;;;;;;;;18.25;17.75;;;;;-147.17;100.00;-11950.22;5071737;28;50934;-62
2023/05/28 03:39:16;;;;;;;;;18.50;17.75;;;;;-147.17;100.00;-11950.22;5070803;28;50954;-63
2023/05/28 03:41:44;;;;;;;;;19.00;18.25;;;;;-147.17;100.00;-12198.19;5039281;28;53023;-63
2023/05/28 03:44:09;;;;;;;;;20.75;16.75;;;;;-147.17;100.00;-12198.19;5068908;28;51443;-63
2023/05/28 03:46:35;;;;;;;;;26.00;23.50;;;;;-147.17;100.00;-12198.19;5066901;28;51042;-63
2023/05/28 03:49:00;;;;;;;;;21.00;20.25;;;;;-147.17;100.00;-12694.06;5070263;28;52607;-63
2023/05/28 03:51:26;;;;;;;;;21.00;18.75;;;;;-147.17;100.00;-12941.97;5067841;28;50882;-63
2023/05/28 03:53:51;;;;;;;;;19.50;19.25;;;;;-147.17;100.00;-12694.06;5071153;28;50966;-63
2023/05/28 03:56:18;;;;;;;;;22.25;17.25;;;;;-147.17;100.00;-12694.06;5066258;28;51198;-63
2023/05/28 03:58:44;;;;;;;;;18.25;18.00;;;;;-147.17;100.00;-12941.97;5070079;28;51404;-63
2023/05/28 04:01:09;;;;;;;;;20.75;18.00;;;;;-147.17;100.00;-12941.97;5065195;28;51921;-63
2023/05/28 04:03:34;;;;;;;;;20.25;19.00;;;;;-147.17;100.00;-13437.75;5052526;28;51109;-62
2023/05/28 04:06:00;;;;;;;;;23.00;22.00;;;;;-147.17;100.00;-13437.75;5052528;28;51192;-63
2023/05/28 04:08:26;;;;;;;;;19.00;18.25;;;;;-147.17;100.00;-13437.75;5071308;28;51201;-62
2023/05/28 04:10:51;;;;;;;;;18.75;18.25;;;;;-147.17;100.00;-13437.75;5067717;28;51783;-63
2023/05/28 04:13:17;;;;;;;;;21.25;19.50;;;;;-147.17;100.00;-13933.50;5065561;28;51150;-64
2023/05/28 04:15:42;;;;;;;;;21.00;17.00;;;;;-147.17;100.00;-13933.50;5062607;28;51174;-63
2023/05/28 04:18:07;;;;;;;;;20.00;18.50;;;;;-147.17;100.00;-14181.31;5061879;28;51121;-64
2023/05/28 04:20:35;;;;;;;;;17.50;16.25;;;;;-147.17;100.00;-14181.31;5064521;28;59531;-63
2023/05/28 04:23:01;;;;;;;;;20.25;19.00;;;;;-147.17;100.00;-13933.50;5065481;27;52863;-63
2023/05/28 04:25:26;;;;;;;;;19.50;19.50;;;;;-147.17;100.00;-14181.31;5059723;28;50959;-63
2023/05/28 04:27:51;;;;;;;;;16.75;15.00;;;;;-147.17;100.00;-13933.50;5071018;28;54227;-63
2023/05/28 04:30:16;;;;;;;;;21.75;19.50;;;;;-147.17;100.00;-14181.31;5071169;28;50943;-63
2023/05/28 04:32:42;;;;;;;;;19.50;17.50;;;;;-147.17;100.00;-14181.31;5066130;28;55248;-62
2023/05/28 04:35:08;;;;;;;;;18.50;17.25;;;;;-147.17;100.00;-14181.31;5071172;28;51259;-64
2023/05/28 04:37:36;;;;;;;;;22.75;20.75;;;;;-147.17;100.00;-14181.31;5052683;28;51247;-62
2023/05/28 04:40:03;;;;;;;;;20.25;19.50;;;;;-147.17;100.00;-14181.31;5071402;28;50974;-64
2023/05/28 04:42:29;;;;;;;;;19.25;17.25;;;;;-147.17;100.00;-14181.31;5053615;28;51122;-62
2023/05/28 04:44:55;;;;;;;;;21.50;19.75;;;;;-147.17;100.00;-14429.16;5071099;28;51120;-64
2023/05/28 04:47:21;;;;;;;;;16.50;15.75;;;;;-147.17;100.00;-14429.16;5071785;28;50994;-64
2023/05/28 04:49:47;;;;;;;;;17.00;16.25;;;;;-147.17;100.00;-14429.16;5070782;28;52867;-64
2023/05/28 04:52:12;;;;;;;;;20.75;20.00;;;;;-147.17;100.00;-14676.94;5071673;28;51086;-64
2023/05/28 04:54:38;;;;;;;;;21.75;20.75;;;;;-147.17;100.00;-14429.16;5071782;28;51190;-63
2023/05/28 04:57:04;;;;;;;;;20.00;18.25;;;;;-147.17;100.00;-14676.94;5073885;28;52942;-63
2023/05/28 04:59:30;;;;;;;;;23.00;21.00;;;;;-147.17;100.00;-14429.16;5071125;28;51713;-63
2023/05/28 05:01:55;;;;;;;;;21.00;21.00;;;;;-147.17;100.00;-14676.94;5056581;28;51175;-63
2023/05/28 05:04:21;;;;;;;;;18.50;17.75;;;;;-147.17;100.00;-14924.75;5067408;28;51222;-62
2023/05/28 05:06:46;;;;;;;;;18.75;18.00;;;;;-147.17;100.00;-14676.94;5075189;28;51322;-63
2023/05/28 05:09:11;;;;;;;;;18.50;17.50;;;;;-147.17;100.00;-13933.50;5073895;28;50987;-63
2023/05/28 05:11:37;;;;;;;;;23.75;22.75;;;;;-147.17;100.00;-13189.88;5070311;28;54486;-63
2023/05/28 05:14:02;;;;;;;;;21.75;20.75;;;;;-147.17;100.00;-12446.13;5053876;28;51033;-63
2023/05/28 05:16:28;;;;;;;;;21.25;19.75;;;;;-147.17;100.00;-11206.22;5074526;28;51262;-63
2023/05/28 05:18:54;;;;;;;;;18.75;18.50;;;;;-147.17;100.00;-9221.53;5074619;28;52775;-63
2023/05/28 05:21:20;;;;;;;;;24.75;20.75;;;;;-147.17;100.00;-7732.34;5073195;28;51152;-63
2023/05/28 05:23:45;;;;;;;;;19.50;19.50;;;;;-147.17;100.00;-5249.09;5074025;28;51310;-63
2023/05/28 05:26:12;;;;;;;;;17.75;17.50;;;;;-147.17;100.00;-3261.34;5073734;28;51121;-64
2023/05/28 05:28:38;;;;;;;;;19.75;19.75;;;;;-147.17;100.00;-526.47;5066549;27;51155;-64
2023/05/28 05:31:03;;;;;;;;;16.00;14.50;;;;;-147.17;100.00;717.28;5065693;27;52042;-64
2023/05/28 05:33:28;;;;;;;;;20.50;19.50;;;;;-147.17;100.00;3454.97;5073497;28;50973;-63
2023/05/28 05:35:54;;;;;;;;;20.25;19.50;;;;;-147.17;100.00;7689.75;5072489;28;51102;-63
2023/05/28 05:38:19;;;;;;;;;19.50;19.25;;;;;-147.17;100.00;11679.66;5073344;28;51647;-63
2023/05/28 05:40:44;;;;;;;;;18.00;17.00;;;;;-147.17;100.00;12927.34;5068245;28;51271;-62
2023/05/28 05:43:10;;;;;;;;;21.50;20.00;;;;;-147.17;100.00;13426.53;5073655;28;51089;-63
2023/05/28 05:45:35;;;;;;;;;21.00;19.00;;;;;-147.17;100.00;15423.94;5070141;27;51405;-63
2023/05/28 05:48:00;;;;;;;;;20.00;18.50;;;;;-147.17;100.00;19921.84;5056104;28;51970;-62
2023/05/28 05:50:26;;;;;;;;;21.75;19.75;;;;;-147.17;100.00;23674.09;5065421;28;51230;-63
2023/05/28 05:52:51;;;;;;;;;19.50;17.50;;;;;-147.17;100.00;22172.75;5070386;28;51102;-63
2023/05/28 05:55:16;;;;;;;;;21.25;19.75;;;;;-147.17;100.00;26089.53;5071828;28;51198;-63
2023/05/28 05:57:43;;;;;;;;;19.75;18.00;;;;;-147.17;100.00;28479.09;5063848;28;51644;-62
2023/05/28 06:00:10;;;;;;;;;22.33;21.00;;;;;-147.17;100.00;30213.94;5068702;28;52161;-62
2023/05/28 06:02:37;;;;;;;;;14.33;14.33;;;;;-147.17;100.00;31928.00;5063265;27;51568;-62
2023/05/28 06:05:03;;;;;;;;;21.00;20.75;;;;;-147.17;100.00;32459.03;5063226;28;51374;-62
2023/05/28 06:07:29;;;;;;;;;20.00;18.00;;;;;-147.17;100.00;36040.91;5067688;28;52112;-62
2023/05/28 06:09:55;;;;;;;;;18.00;17.00;;;;;-147.17;100.00;36274.31;5068809;28;51076;-62
2023/05/28 06:12:21;;;;;;;;;17.25;16.25;;;;;-147.17;100.00;37867.41;5063171;27;51181;-64
2023/05/28 06:14:47;;;;;;;;;23.00;20.50;;;;;-147.17;100.00;38010.66;5066290;28;50999;-62
2023/05/28 06:17:12;;;;;;;;;14.67;14.00;;;;;-147.17;100.00;38034.19;5070212;28;51259;-63
2023/05/28 06:19:38;;;;;;;;;18.33;17.67;;;;;-147.17;100.00;39296.22;5066134;28;51101;-63
2023/05/28 06:22:04;;;;;;;;;17.00;16.33;;;;;-147.17;100.00;39323.72;5068614;27;52648;-62
2023/05/28 06:24:29;;;;;;;;;20.00;18.67;;;;;-147.17;100.00;40476.19;5063207;28;51382;-63
2023/05/28 06:26:55;;;;;;;;;20.75;19.50;;;;;-147.17;100.00;41016.22;5062741;28;52540;-63
2023/05/28 06:29:20;;;;;;;;;17.33;16.67;;;;;-147.17;100.00;41071.22;5061837;28;54220;-63
2023/05/28 06:31:46;;;;;;;;;19.33;19.33;;;;;-147.17;100.00;41764.56;5040629;28;51295;-63
2023/05/28 06:34:11;;;;;;;;;20.00;17.33;;;;;-147.17;100.00;42850.94;5063960;28;51269;-63
2023/05/28 06:36:37;;;;;;;;;19.00;18.67;;;;;-147.17;100.00;42387.28;5061143;27;51992;-63
2023/05/28 06:39:04;;;;;;;;;18.33;16.67;;;;;-147.17;100.00;42945.25;5024384;28;51624;-64
2023/05/28 06:41:30;;;;;;;;;18.00;16.00;;;;;-147.17;100.00;43023.84;5071770;28;50979;-64
2023/05/28 06:43:55;;;;;;;;;24.33;21.00;;;;;-147.17;100.00;43074.94;5072816;28;51068;-64
2023/05/28 06:46:21;;;;;;;;;17.00;16.33;;;;;-147.17;100.00;43281.25;5072733;28;51371;-64
2023/05/28 06:48:46;;;;;;;;;19.00;18.33;;;;;-147.17;100.00;43122.09;5068707;28;51324;-64
2023/05/28 06:51:12;;;;;;;;;22.00;20.00;;;;;-147.17;100.00;43326.47;5064173;28;51317;-64
2023/05/28 06:53:38;;;;;;;;;17.67;17.67;;;;;-147.17;100.00;43350.03;5050004;27;51445;-64
2023/05/28 06:56:05;;;;;;;;;18.67;17.00;;;;;-147.17;100.00;43782.38;5068899;28;52281;-63
2023/05/28 06:58:30;;;;;;;;;17.67;17.00;;;;;-147.17;100.00;43739.16;5040675;27;51198;-64
2023/05/28 07:00:56;;;;;;;;;18.33;17.33;;;;;-147.17;100.00;43984.81;5059597;27;52132;-64
2023/05/28 07:03:21;;;;;;;;;17.33;17.33;;;;;-147.17;100.00;43684.13;5068763;28;51031;-66
2023/05/28 07:05:48;;;;;;;;;16.00;16.00;;;;;-147.17;100.00;43302.88;5046882;27;51850;-62
2023/05/28 07:08:13;;;;;;;;;16.67;16.00;;;;;-147.17;100.00;44057.53;5062985;28;51246;-63
2023/05/28 07:10:38;;;;;;;;;19.33;17.67;;;;;-147.17;100.00;43939.59;5064196;28;50953;-63
2023/05/28 07:13:04;;;;;;;;;20.67;19.67;;;;;-147.17;100.00;43800.06;5053884;28;51087;-62
2023/05/28 07:15:29;;;;;;;;;17.67;16.67;;;;;-147.17;100.00;43578.00;5059836;28;52720;-61
2023/05/28 07:17:55;;;;;;;;;24.00;20.67;;;;;-147.17;100.00;43530.84;5060098;27;56147;-63
2023/05/28 07:20:20;;;;;;;;;21.00;19.25;;;;;-147.17;100.00;43699.84;5070034;28;51650;-63
2023/05/28 07:22:46;;;;;;;;;15.33;14.33;;;;;-147.17;100.00;43772.56;5064935;28;51121;-63
2023/05/28 07:25:11;;;;;;;;;18.00;17.00;;;;;-147.17;100.00;43827.59;5067768;28;51944;-62
2023/05/28 07:27:37;;;;;;;;;18.33;18.00;;;;;-147.17;100.00;43707.69;5071691;27;51124;-63
2023/05/28 07:30:02;;;;;;;;;19.67;19.33;;;;;-147.17;100.00;43365.75;5063239;27;51219;-61
2023/05/28 07:32:28;;;;;;;;;16.67;16.67;;;;;-147.17;100.00;43326.47;5071245;27;51137;-63
2023/05/28 07:34:53;;;;;;;;;16.00;16.00;;;;;-147.17;100.00;43263.59;5063250;28;51299;-61
2023/05/28 07:37:18;;;;;;;;;15.33;15.00;;;;;-147.17;100.00;43420.78;5062318;28;52881;-61
2023/05/28 07:39:43;;;;;;;;;13.00;12.00;;;;;-147.17;100.00;43204.63;5070238;28;51199;-62
2023/05/28 07:42:09;;;;;;;;;17.00;15.33;;;;;-147.17;100.00;43214.44;5063981;28;51135;-62
2023/05/28 07:44:34;;;;;;;;;16.67;14.33;;;;;-147.17;100.00;43006.16;5070905;27;51178;-63
2023/05/28 07:46:59;;;;;;;;;16.00;16.00;;;;;-147.17;100.00;42866.66;5069875;28;51122;-62
2023/05/28 07:49:25;;;;;;;;;16.33;14.67;;;;;-147.17;100.00;42792.00;5071770;28;51052;-63
2023/05/28 07:51:50;;;;;;;;;16.67;16.33;;;;;-147.17;100.00;43063.16;5071442;28;51343;-64
2023/05/28 07:54:15;;;;;;;;;14.33;13.33;;;;;-147.17;100.00;43249.81;5061732;27;64370;-64
2023/05/28 07:56:41;;;;;;;;;14.33;14.33;;;;;-147.17;100.00;42858.81;5060898;28;51117;-67
2023/05/28 07:59:06;;;;;;;;;14.33;14.00;;;;;-147.17;100.00;42577.84;5068936;28;51301;-66
2023/05/28 08:01:32;;;;;;;;;17.33;16.67;;;;;-147.17;100.00;42422.63;5070686;27;51342;-66
2023/05/28 08:03:57;;;;;;;;;18.00;17.00;;;;;-147.17;100.00;42088.66;5059060;27;51647;-65
2023/05/28 08:06:22;;;;;;;;;14.67;14.00;;;;;-147.17;100.00;41632.94;5066806;28;51383;-63
2023/05/28 08:08:48;;;;;;;;;14.00;14.00;;;;;-147.17;100.00;41595.63;5069500;27;51454;-63
2023/05/28 08:11:14;;;;;;;;;14.00;13.33;;;;;-147.17;100.00;41746.88;5062350;27;51384;-61
2023/05/28 08:13:40;;;;;;;;;12.67;12.67;;;;;-147.17;100.00;41766.50;5050721;28;53970;-61
2023/05/28 08:16:06;;;;;;;;;14.00;13.00;;;;;-147.17;100.00;41644.72;5062255;28;51225;-60
2023/05/28 08:18:31;;;;;;;;;14.33;13.00;;;;;-147.17;100.00;41373.69;5071046;28;51104;-60
2023/05/28 08:20:56;;;;;;;;;15.00;15.00;;;;;-147.17;100.00;41149.78;5073002;28;51061;-60
2023/05/28 08:23:22;;;;;;;;;15.67;15.33;;;;;-147.17;100.00;40747.19;5068438;28;51081;-60
2023/05/28 08:25:47;;;;;;;;;14.00;13.00;;;;;-147.17;100.00;40654.91;5067406;28;51228;-60
2023/05/28 08:28:13;;;;;;;;;14.33;13.33;;;;;-147.17;100.00;40694.16;5066564;28;52193;-62
2023/05/28 08:30:39;;;;;;;;;13.00;12.33;;;;;-147.17;100.00;40326.97;5058955;28;51229;-60
2023/05/28 08:33:04;;;;;;;;;14.00;13.00;;;;;-147.17;100.00;40340.72;5056575;28;51847;-60
2023/05/28 08:35:29;;;;;;;;;13.33;12.33;;;;;-147.17;100.00;40289.66;5053715;27;52687;-61
2023/05/28 08:37:55;;;;;;;;;16.67;16.67;;;;;-147.17;100.00;40222.91;5057584;28;51211;-61
2023/05/28 08:40:20;;;;;;;;;15.33;14.00;;;;;-147.17;100.00;40103.13;5051246;27;51541;-60
2023/05/28 08:42:46;;;;;;;;;15.25;14.25;;;;;-147.17;100.00;40097.25;5060945;27;51610;-60
2023/05/28 08:45:11;;;;;;;;;18.00;13.33;;;;;-147.17;100.00;40309.28;5070021;28;51109;-61
2023/05/28 08:47:37;;;;;;;;;13.00;11.33;;;;;-147.17;100.00;40466.38;5044770;27;51358;-60
2023/05/28 08:50:05;;;;;;;;;13.67;13.67;;;;;-147.17;100.00;40069.75;5070846;27;51156;-60
2023/05/28 08:52:32;;;;;;;;;14.00;14.00;;;;;-147.17;100.00;40148.28;5065941;28;51163;-60
2023/05/28 08:55:01;;;;;;;;;15.67;14.67;;;;;-147.17;100.00;40085.47;5067628;28;51258;-61
2023/05/28 08:57:32;;;;;;;;;12.67;12.67;;;;;-147.17;100.00;39749.72;5064413;27;54732;-60
2023/05/28 08:59:59;;;;;;;;;15.00;13.00;;;;;-147.17;100.00;39202.00;5069124;28;51144;-60
2023/05/28 09:02:25;;;;;;;;;11.33;10.33;;;;;-147.17;100.00;39626.03;5037951;28;53721;-59
2023/05/28 09:04:51;;;;;;;;;12.00;12.00;;;;;-147.17;100.00;39608.38;5073726;28;51009;-61
2023/05/28 09:07:16;;;;;;;;;13.33;13.33;;;;;-147.17;100.00;39296.22;5066339;27;51050;-61
2023/05/28 09:09:42;;;;;;;;;16.67;15.00;;;;;-147.17;100.00;39215.75;5069338;27;51214;-61
2023/05/28 09:12:12;;;;;;;;;13.67;13.00;;;;;-147.17;100.00;39119.56;5072280;28;51134;-61
2023/05/28 09:14:40;;;;;;;;;13.00;12.00;;;;;-147.17;100.00;38942.91;5071161;28;51256;-61
2023/05/28 09:17:08;;;;;;;;;10.67;9.67;;;;;-147.17;100.00;38727.00;5075256;28;51141;-61
2023/05/28 09:19:34;;;;;;;;;13.00;12.33;;;;;-147.17;100.00;38460.06;5070251;27;51156;-59
2023/05/28 09:22:01;;;;;;;;;12.00;11.33;;;;;-147.17;100.00;38271.66;5076140;27;54036;-62
2023/05/28 09:24:28;;;;;;;;;12.00;12.00;;;;;-147.17;100.00;38318.75;5062751;27;51338;-61
2023/05/28 09:26:55;;;;;;;;;11.33;11.00;;;;;-147.17;100.00;38493.44;5068375;28;51289;-61
2023/05/28 09:29:23;;;;;;;;;14.00;13.67;;;;;-147.17;100.00;38448.28;5062660;27;52360;-60
2023/05/28 09:31:59;;;;;;;;;10.67;10.67;;;;;-147.17;100.00;38208.84;5072842;28;52521;-59
2023/05/28 09:34:29;;;;;;;;;12.00;11.33;;;;;-147.17;100.00;38038.13;5071755;28;50894;-59
2023/05/28 09:37:06;;;;;;;;;15.33;12.33;;;;;-147.17;100.00;38032.25;5065409;28;51186;-60
2023/05/28 09:39:32;;;;;;;;;11.00;11.00;;;;;-147.17;100.00;37865.44;5062045;27;51232;-59
2023/05/28 09:42:12;;;;;;;;;9.67;9.67;;;;;-147.17;100.00;37877.22;5066963;27;51851;-58
2023/05/28 09:44:40;;;;;;;;;12.00;12.00;;;;;-147.17;100.00;38220.63;5073190;28;51051;-63
2023/05/28 09:47:15;;;;;;;;;12.00;11.33;;;;;-147.17;100.00;38091.09;5074882;28;51131;-60
2023/05/28 09:49:46;;;;;;;;;11.67;11.67;;;;;-147.17;100.00;38057.75;5073620;28;50932;-59
2023/05/28 09:52:19;;;;;;;;;8.33;8.00;;;;;-147.17;100.00;37926.28;5074150;28;52117;-59
2023/05/28 09:54:54;;;;;;;;;11.67;10.00;;;;;-147.17;100.00;38126.44;5074001;28;50894;-60
2023/05/28 09:57:26;;;;;;;;;10.33;10.33;;;;;-147.17;100.00;37867.41;5073467;27;50997;-60
2023/05/28 09:59:55;;;;;;;;;10.67;10.67;;;;;-147.17;100.00;37349.38;5073407;28;51092;-59
2023/05/28 10:02:46;;;;;;;;;9.33;9.33;;;;;-147.17;100.00;37121.78;5072471;28;51730;-60
2023/05/28 10:05:16;;;;;;;;;11.00;10.00;;;;;-147.17;100.00;36819.66;5074505;28;50937;-59
2023/05/28 10:07:44;;;;;;;;;10.67;9.00;;;;;-147.17;100.00;37712.38;5074538;28;51041;-59
2023/05/28 10:10:12;;;;;;;;;13.67;12.33;;;;;-147.17;100.00;38593.53;5073988;28;51325;-59
2023/05/28 10:12:39;;;;;;;;;10.00;10.00;;;;;-147.17;100.00;39704.56;5069171;27;51865;-59
2023/05/28 10:15:06;;;;;;;;;9.67;9.00;;;;;-147.17;100.00;39895.00;5072889;27;51302;-59
2023/05/28 10:17:32;;;;;;;;;11.00;10.67;;;;;-147.17;100.00;40562.59;5053073;28;51100;-59
2023/05/28 10:19:58;;;;;;;;;9.00;9.00;;;;;-147.17;100.00;41632.94;5074045;28;51219;-59
2023/05/28 10:22:23;;;;;;;;;8.00;7.33;;;;;-147.17;100.00;42391.22;5073519;28;52819;-59
2023/05/28 10:24:50;;;;;;;;;8.67;8.00;;;;;-147.17;100.00;42921.69;5073896;28;51068;-59
2023/05/28 10:27:16;;;;;;;;;10.00;8.33;;;;;-147.17;100.00;43487.59;5073392;28;50993;-60
2023/05/28 10:29:43;;;;;;;;;10.00;10.00;;;;;-147.17;100.00;43823.66;5065985;28;50932;-59
2023/05/28 10:32:08;;;;;;;;;11.00;10.00;;;;;-147.17;100.00;44061.47;5072434;27;51722;-59
2023/05/28 10:34:36;;;;;;;;;10.00;9.00;;;;;-147.17;100.00;44336.63;5054583;28;51094;-60
2023/05/28 10:37:06;;;;;;;;;12.00;12.00;;;;;-147.17;100.00;44997.13;5073759;28;51086;-60
2023/05/28 10:39:48;;;;;;;;;11.00;10.33;;;;;-147.17;100.00;45634.09;5073796;28;51093;-59
2023/05/28 10:42:18;;;;;;;;;9.67;9.00;;;;;-147.17;100.00;46078.50;5070804;28;52042;-60
2023/05/28 10:45:11;;;;;;;;;9.00;8.00;;;;;-147.17;100.00;46401.00;5076227;27;51215;-59
2023/05/28 10:47:41;;;;;;;;;8.00;8.00;;;;;-147.17;100.00;46694.03;5071486;27;51102;-60
2023/05/28 10:50:09;;;;;;;;;9.00;9.00;;;;;-147.17;100.00;46743.22;5073187;28;51090;-60